Time;durP1;ratioP1;P1;durP2;ratioP2;P2;SDS_P1;SDS_P2;PMS_P1;PMS_P2;Temp;Humidity;BMP_temperature;BMP_pressure;BME280_temperature;BME280_humidity;BME280_pressure;Samples;Min_cycle;Max_cycle;Signal;HPM_P1;HPM_P2
2022/11/29 00:01:16;;;;;;;191.60;49.15;;;;;;;7.08;100.00;101116.47;5083318;28;20031;-80
2022/11/29 00:03:42;;;;;;;148.32;46.42;;;;;;;7.07;100.00;101118.31;5077858;28;20035;-80
2022/11/29 00:06:13;;;;;;;134.05;44.35;;;;;;;7.12;100.00;101124.34;5076518;28;20036;-81
2022/11/29 00:08:40;;;;;;;156.48;48.42;;;;;;;7.02;100.00;101109.56;5098930;28;20039;-81
2022/11/29 00:11:07;;;;;;;139.77;44.72;;;;;;;7.11;100.00;101125.31;5081485;28;20475;-81
2022/11/29 00:13:33;;;;;;;192.38;49.40;;;;;;;7.11;100.00;101114.41;5095423;28;20132;-81
2022/11/29 00:16:10;;;;;;;165.98;46.92;;;;;;;7.07;100.00;101114.72;5068620;28;20032;-81
2022/11/29 00:18:36;;;;;;;154.65;45.65;;;;;;;7.10;100.00;101117.22;5073620;28;20078;-81
2022/11/29 00:21:08;;;;;;;176.63;47.60;;;;;;;7.11;100.00;101117.16;5073958;28;20498;-81
2022/11/29 00:23:34;;;;;;;157.65;47.78;;;;;;;7.10;100.00;101118.13;5089465;28;20396;-80
2022/11/29 00:26:05;;;;;;;166.65;48.03;;;;;;;7.17;100.00;101124.94;5090161;28;20430;-81
2022/11/29 00:28:31;;;;;;;142.43;45.40;;;;;;;7.22;100.00;101124.69;5096563;28;20036;-81
2022/11/29 00:30:56;;;;;;;144.40;45.30;;;;;;;7.15;100.00;101109.69;5062056;28;20033;-81
2022/11/29 00:33:22;;;;;;;176.95;48.28;;;;;;;7.10;100.00;101123.59;5091356;28;20035;-81
2022/11/29 00:35:47;;;;;;;129.27;46.38;;;;;;;7.11;100.00;101119.88;5082782;28;20039;-81
2022/11/29 00:38:12;;;;;;;160.90;45.50;;;;;;;7.08;100.00;101125.50;5059102;28;20036;-81
2022/11/29 00:40:38;;;;;;;133.82;44.00;;;;;;;7.04;100.00;101125.78;5089286;28;20040;-81
2022/11/29 00:43:03;;;;;;;129.30;45.17;;;;;;;7.02;100.00;101111.38;5075880;28;20031;-81
2022/11/29 00:45:29;;;;;;;175.23;47.90;;;;;;;7.04;100.00;101129.38;5094629;28;20064;-82
2022/11/29 00:47:54;;;;;;;237.68;47.42;;;;;;;6.98;100.00;101125.19;5076380;28;20156;-82
2022/11/29 00:50:20;;;;;;;261.65;39.90;;;;;;;6.93;100.00;101110.09;5070370;28;20040;-81
2022/11/29 00:52:45;;;;;;;115.75;38.47;;;;;;;6.81;100.00;101112.56;5086554;28;20039;-82
2022/11/29 00:55:10;;;;;;;125.47;39.40;;;;;;;6.74;100.00;101119.34;5055248;28;20039;-81
2022/11/29 00:57:36;;;;;;;134.23;42.70;;;;;;;6.67;100.00;101115.22;5063765;28;20040;-82
2022/11/29 01:00:01;;;;;;;151.40;41.65;;;;;;;6.68;100.00;101110.69;5064058;28;20033;-82
2022/11/29 01:02:27;;;;;;;132.77;39.70;;;;;;;6.64;100.00;101104.56;5068113;28;20038;-82
2022/11/29 01:04:52;;;;;;;136.98;41.97;;;;;;;6.67;100.00;101115.22;5066757;28;20043;-82
2022/11/29 01:07:18;;;;;;;133.27;40.78;;;;;;;6.57;100.00;101130.34;5069550;28;20036;-82
2022/11/29 01:09:43;;;;;;;132.77;40.60;;;;;;;6.47;100.00;101120.97;5052443;28;20038;-81
2022/11/29 01:12:09;;;;;;;142.18;41.67;;;;;;;6.43;100.00;101126.56;5065343;28;20119;-81
2022/11/29 01:14:34;;;;;;;142.25;43.42;;;;;;;6.51;100.00;101120.72;5083905;28;20036;-82
2022/11/29 01:16:59;;;;;;;144.40;42.72;;;;;;;6.44;100.00;101130.16;5079479;28;20024;-82
2022/11/29 01:19:25;;;;;;;124.10;42.92;;;;;;;6.53;100.00;101123.34;5064422;28;20024;-81
2022/11/29 01:21:50;;;;;;;436.73;49.53;;;;;;;6.38;100.00;101130.53;5058170;28;20048;-82
2022/11/29 01:24:16;;;;;;;225.27;41.03;;;;;;;6.38;100.00;101130.53;5077177;28;20050;-81
2022/11/29 01:26:41;;;;;;;127.47;40.88;;;;;;;6.33;100.00;101127.19;5049318;28;20130;-81
2022/11/29 01:29:10;;;;;;;128.07;39.75;;;;;;;6.30;100.00;101130.97;5063506;28;20037;-81
2022/11/29 01:31:36;;;;;;;115.82;40.08;;;;;;;6.32;100.00;101126.31;5089509;28;20043;-82
2022/11/29 01:34:04;;;;;;;148.05;43.20;;;;;;;6.40;100.00;101132.19;5056284;28;20037;-81
2022/11/29 01:36:30;;;;;;;148.00;41.75;;;;;;;6.38;100.00;101135.97;5100213;28;20787;-81
2022/11/29 01:38:59;;;;;;;133.70;42.60;;;;;;;6.37;100.00;101136.94;5100022;28;20024;-81
2022/11/29 01:41:28;;;;;;;143.23;43.88;;;;;;;6.36;100.00;101133.34;5102208;28;20081;-82
2022/11/29 01:44:02;;;;;;;162.27;45.70;;;;;;;6.38;100.00;101133.25;5091232;28;20063;-82
2022/11/29 01:46:30;;;;;;;173.95;45.90;;;;;;;6.37;100.00;101140.53;5083478;28;20055;-82
2022/11/29 01:49:10;;;;;;;150.45;44.13;;;;;;;6.33;100.00;101130.81;5093402;28;20054;-82
2022/11/29 01:51:39;;;;;;;209.50;43.35;;;;;;;6.20;100.00;101141.50;5080090;28;20425;-81
2022/11/29 01:54:07;;;;;;;136.48;38.58;;;;;;;5.92;100.00;101133.06;5093060;28;20031;-82
2022/11/29 01:56:34;;;;;;;156.15;36.75;;;;;;;6.05;100.00;101148.66;5057964;28;20475;-82
2022/11/29 01:59:03;;;;;;;156.13;35.47;;;;;;;6.05;100.00;101147.75;5090467;28;20036;-82
2022/11/29 02:01:30;;;;;;;321.08;37.22;;;;;;;5.97;100.00;101150.94;5104596;28;20032;-82
2022/11/29 02:03:55;;;;;;;132.20;32.20;;;;;;;6.01;100.00;101149.78;5085756;28;20042;-81
2022/11/29 02:06:21;;;;;;;214.75;40.25;;;;;;;5.98;100.00;101149.94;5069241;28;20037;-82
2022/11/29 02:08:47;;;;;;;232.35;38.88;;;;;;;6.03;100.00;101147.88;5070728;28;20025;-82
2022/11/29 02:11:18;;;;;;;159.27;35.70;;;;;;;5.96;100.00;101161.84;5072381;28;20047;-82
2022/11/29 02:14:09;;;;;;;159.55;39.47;;;;;;;5.93;100.00;101162.88;5104775;28;20039;-82
2022/11/29 02:17:05;;;;;;;131.80;34.80;;;;;;;5.98;100.00;101166.25;5064927;28;20029;-82
2022/11/29 02:19:43;;;;;;;196.85;40.38;;;;;;;6.07;100.00;101156.72;5080179;28;20403;-81
2022/11/29 02:22:30;;;;;;;128.82;37.65;;;;;;;6.06;100.00;101174.00;5063670;28;20139;-82
2022/11/29 02:25:05;;;;;;;128.00;39.63;;;;;;;6.08;100.00;101169.34;5078252;28;20054;-82
2022/11/29 02:27:57;;;;;;;179.73;44.20;;;;;;;6.10;100.00;101171.97;5064342;28;20029;-81
2022/11/29 02:30:53;;;;;;;182.10;43.92;;;;;;;6.13;100.00;101169.09;5074887;28;20043;-82
2022/11/29 02:33:54;;;;;;;138.88;42.20;;;;;;;6.18;100.00;101165.19;5097487;28;20032;-82
2022/11/29 02:36:48;;;;;;;160.52;43.83;;;;;;;6.10;100.00;101155.66;5062629;28;20091;-82
2022/11/29 02:39:23;;;;;;;179.02;43.92;;;;;;;6.29;100.00;101175.44;5080046;28;20040;-82
2022/11/29 02:42:12;;;;;;;155.45;42.50;;;;;;;6.26;100.00;101181.03;5077393;28;20025;-81
2022/11/29 02:45:02;;;;;;;408.23;56.15;;;;;;;6.26;100.00;101175.59;5086620;28;20104;-82
2022/11/29 02:47:47;;;;;;;215.90;44.88;;;;;;;6.15;100.00;101184.38;5089190;28;20080;-82
2022/11/29 02:50:12;;;;;;;190.57;45.03;;;;;;;6.16;100.00;101193.41;5090424;28;20031;-82
2022/11/29 02:52:56;;;;;;;250.98;50.85;;;;;;;6.10;100.00;101199.16;5091860;28;20071;-83
2022/11/29 02:55:36;;;;;;;218.70;47.00;;;;;;;6.22;100.00;101201.22;5107237;28;20036;-82
2022/11/29 02:58:15;;;;;;;213.73;49.40;;;;;;;6.24;100.00;101205.59;5084482;28;20050;-81
2022/11/29 03:00:50;;;;;;;242.85;50.88;;;;;;;6.23;100.00;101205.69;5083386;28;20028;-81
2022/11/29 03:03:37;;;;;;;387.00;58.88;;;;;;;6.29;100.00;101199.91;5099526;28;20088;-81
2022/11/29 03:06:28;;;;;;;245.63;53.35;;;;;;;6.40;100.00;101211.06;5089449;28;20027;-81
2022/11/29 03:08:59;;;;;;;295.80;55.05;;;;;;;6.33;100.00;101200.59;5085729;28;20066;-82
2022/11/29 03:11:35;;;;;;;284.85;52.70;;;;;;;6.25;100.00;101201.06;5090631;28;20044;-81
2022/11/29 03:14:18;;;;;;;361.05;58.13;;;;;;;6.27;100.00;101209.13;5087544;28;20078;-81
2022/11/29 03:17:18;;;;;;;260.08;54.75;;;;;;;6.29;100.00;101196.31;5069533;28;20043;-81
2022/11/29 03:19:54;;;;;;;344.77;57.90;;;;;;;6.33;100.00;101204.22;5061597;28;20555;-81
2022/11/29 03:22:35;;;;;;;425.67;60.83;;;;;;;6.35;100.00;101196.84;5088630;28;20119;-81
2022/11/29 03:25:18;;;;;;;328.40;56.10;;;;;;;6.39;100.00;101201.13;5083873;28;20028;-82
2022/11/29 03:27:55;;;;;;;323.87;59.17;;;;;;;6.41;100.00;101207.38;5094879;28;20031;-81
2022/11/29 03:30:20;;;;;;;326.35;56.03;;;;;;;6.40;100.00;101211.06;5097877;28;20339;-82
2022/11/29 03:33:01;;;;;;;255.18;55.35;;;;;;;6.51;100.00;101220.44;5081522;28;20036;-81
2022/11/29 03:35:41;;;;;;;349.83;57.15;;;;;;;6.52;100.00;101219.50;5098053;28;20056;-82
2022/11/29 03:38:38;;;;;;;255.15;53.28;;;;;;;6.54;100.00;101223.00;5067567;28;20032;-82
2022/11/29 03:41:22;;;;;;;332.27;56.35;;;;;;;6.53;100.00;101221.28;5085358;28;20497;-81
2022/11/29 03:44:02;;;;;;;340.52;56.78;;;;;;;6.51;100.00;101234.06;5097569;28;20055;-82
2022/11/29 03:46:38;;;;;;;279.98;53.17;;;;;;;6.53;100.00;101229.44;5081105;28;20360;-81
2022/11/29 03:49:15;;;;;;;357.67;57.40;;;;;;;6.59;100.00;101231.78;5080593;28;20119;-82
2022/11/29 03:51:43;;;;;;;314.10;54.70;;;;;;;6.57;100.00;101229.16;5088092;28;20115;-81
2022/11/29 03:54:14;;;;;;;431.35;65.93;;;;;;;6.55;100.00;101232.94;5095631;28;20129;-82
2022/11/29 03:56:40;;;;;;;271.42;54.08;;;;;;;6.52;100.00;101230.38;5067203;28;20030;-82
2022/11/29 03:59:27;;;;;;;308.45;54.05;;;;;;;6.55;100.00;101244.69;5042773;28;20033;-81
2022/11/29 04:02:23;;;;;;;296.52;54.95;;;;;;;6.56;100.00;101238.28;5084569;28;20036;-81
2022/11/29 04:05:07;;;;;;;410.77;59.92;;;;;;;6.59;100.00;101237.22;5081312;28;20040;-81
2022/11/29 04:08:10;;;;;;;402.17;60.33;;;;;;;6.64;100.00;101237.88;5077125;28;20028;-82
2022/11/29 04:10:50;;;;;;;254.20;53.17;;;;;;;6.62;100.00;101245.22;5078997;28;20048;-81
2022/11/29 04:13:54;;;;;;;280.63;54.35;;;;;;;6.65;100.00;101255.06;5078283;28;20058;-82
2022/11/29 04:16:23;;;;;;;253.15;52.30;;;;;;;6.62;100.00;101258.81;5078115;28;20395;-82
2022/11/29 04:19:24;;;;;;;358.45;57.53;;;;;;;6.62;100.00;101262.44;5076725;28;20032;-82
2022/11/29 04:21:58;;;;;;;223.30;52.13;;;;;;;6.70;100.00;101255.69;5091197;28;20167;-81
2022/11/29 04:24:27;;;;;;;328.65;56.95;;;;;;;6.67;100.00;101256.72;5095273;28;20081;-81
2022/11/29 04:27:15;;;;;;;362.33;59.65;;;;;;;6.66;100.00;101267.69;5076399;28;20368;-82
2022/11/29 04:29:55;;;;;;;211.23;50.85;;;;;;;6.61;100.00;101266.09;5063431;28;20483;-82
2022/11/29 04:32:30;;;;;;;227.68;52.50;;;;;;;6.60;100.00;101266.19;5060413;28;20043;-82
2022/11/29 04:35:08;;;;;;;265.55;52.92;;;;;;;6.62;100.00;101259.72;5084071;28;20031;-81
2022/11/29 04:37:54;;;;;;;231.18;53.60;;;;;;;6.61;100.00;101271.56;5097980;28;20036;-81
2022/11/29 04:40:46;;;;;;;210.90;50.10;;;;;;;6.64;100.00;101270.50;5080177;28;20391;-82
2022/11/29 04:43:11;;;;;;;198.93;50.58;;;;;;;6.68;100.00;101271.22;5080382;28;20032;-82
2022/11/29 04:45:37;;;;;;;308.30;56.40;;;;;;;6.71;100.00;101274.63;5092556;28;20035;-82
2022/11/29 04:48:05;;;;;;;184.27;50.60;;;;;;;6.76;100.00;101291.59;5099059;28;20029;-82
2022/11/29 04:51:33;;;;;;;293.55;55.17;;;;;;;6.71;100.00;101285.53;5080280;28;20111;-81
2022/11/29 04:54:07;;;;;;;189.18;50.03;;;;;;;6.71;100.00;101290.97;5043189;28;20040;-81
2022/11/29 04:56:42;;;;;;;278.05;53.22;;;;;;;6.71;100.00;101298.25;5082736;28;20033;-82
2022/11/29 04:59:24;;;;;;;212.13;52.58;;;;;;;6.70;100.00;101300.06;5064901;28;20032;-81
2022/11/29 05:02:01;;;;;;;208.02;50.65;;;;;;;6.68;100.00;101293.84;5080584;28;20108;-81
2022/11/29 05:04:55;;;;;;;280.70;54.50;;;;;;;6.78;100.00;101295.09;5080908;28;20024;-81
2022/11/29 05:07:23;;;;;;;188.25;50.00;;;;;;;6.73;100.00;101310.78;5071818;28;20028;-81
2022/11/29 05:10:26;;;;;;;258.35;54.75;;;;;;;6.74;100.00;101308.94;5098367;28;20032;-81
2022/11/29 05:13:29;;;;;;;314.05;57.60;;;;;;;6.67;100.00;101312.97;5096320;28;20251;-81
2022/11/29 05:16:03;;;;;;;235.80;52.10;;;;;;;6.68;100.00;101321.06;5066325;28;20045;-81
2022/11/29 05:18:57;;;;;;;253.43;54.08;;;;;;;6.69;100.00;101317.38;5081708;28;20037;-79
2022/11/29 05:21:35;;;;;;;242.55;55.20;;;;;;;6.65;100.00;101313.06;5082564;28;20411;-81
2022/11/29 05:24:22;;;;;;;296.60;55.22;;;;;;;6.59;100.00;101318.84;5079277;28;20027;-80
2022/11/29 05:26:57;;;;;;;255.07;55.58;;;;;;;6.62;100.00;101324.13;5086385;28;20039;-80
2022/11/29 05:29:38;;;;;;;278.48;58.58;;;;;;;6.58;100.00;101333.44;5097652;28;20036;-83
2022/11/29 05:32:16;;;;;;;367.63;58.17;;;;;;;6.65;100.00;101337.56;5092120;28;20032;-80
2022/11/29 05:35:09;;;;;;;312.85;58.45;;;;;;;6.69;100.00;101338.25;5091000;28;20047;-81
2022/11/29 05:37:44;;;;;;;248.25;54.13;;;;;;;6.70;100.00;101338.16;5093706;28;20429;-81
2022/11/29 05:40:12;;;;;;;294.83;58.20;;;;;;;6.65;100.00;101334.84;5059458;28;20032;-80
2022/11/29 05:43:11;;;;;;;290.27;57.78;;;;;;;6.66;100.00;101339.31;5076199;28;20446;-80
2022/11/29 05:45:47;;;;;;;303.52;60.67;;;;;;;6.66;100.00;101331.16;5084969;28;20058;-81
2022/11/29 05:48:23;;;;;;;287.50;56.25;;;;;;;6.70;100.00;101340.91;5075248;28;20028;-80
2022/11/29 05:51:14;;;;;;;272.98;56.55;;;;;;;6.70;100.00;101348.19;5080064;28;20028;-80
2022/11/29 05:54:00;;;;;;;254.98;54.53;;;;;;;6.74;100.00;101355.22;5065797;28;20109;-81
2022/11/29 05:56:48;;;;;;;348.10;61.40;;;;;;;6.75;100.00;101348.81;5069447;28;20038;-80
2022/11/29 05:59:20;;;;;;;283.25;55.40;;;;;;;6.76;100.00;101356.88;5077939;28;20119;-80
2022/11/29 06:01:52;;;;;;;326.58;58.92;;;;;;;6.75;100.00;101352.41;5078223;28;20032;-80
2022/11/29 06:04:27;;;;;;;247.00;53.85;;;;;;;6.70;100.00;101359.94;5061987;28;20479;-80
2022/11/29 06:07:18;;;;;;;285.58;54.33;;;;;;;6.71;100.00;101361.72;5093819;28;20028;-80
2022/11/29 06:09:55;;;;;;;319.63;54.63;;;;;;;6.68;100.00;101366.44;5096842;28;20040;-80
2022/11/29 06:12:22;;;;;;;431.42;60.78;;;;;;;6.68;100.00;101361.88;5073106;28;20490;-81
2022/11/29 06:14:48;;;;;;;388.60;57.20;;;;;;;6.70;100.00;101372.69;5081964;28;20040;-81
2022/11/29 06:17:47;;;;;;;470.75;60.40;;;;;;;6.63;100.00;101372.13;5080780;28;20055;-80
2022/11/29 06:20:26;;;;;;;285.45;52.92;;;;;;;6.65;100.00;101378.38;5071237;28;20036;-80
2022/11/29 06:23:36;;;;;;;368.85;54.35;;;;;;;6.68;100.00;101389.09;5080098;28;20541;-79
2022/11/29 06:26:08;;;;;;;280.75;51.03;;;;;;;6.67;100.00;101392.75;5016362;28;20908;-80
2022/11/29 06:28:45;;;;;;;346.60;54.33;;;;;;;6.65;100.00;101399.25;5078204;28;20033;-81
2022/11/29 06:31:11;;;;;;;303.67;52.60;;;;;;;6.67;100.00;101392.75;5066137;28;20122;-80
2022/11/29 06:34:06;;;;;;;342.00;56.28;;;;;;;6.61;100.00;101393.97;5079382;28;20492;-80
2022/11/29 06:36:49;;;;;;;346.48;54.60;;;;;;;6.65;100.00;101405.56;5080281;28;20060;-80
2022/11/29 06:39:15;;;;;;;330.88;56.72;;;;;;;6.64;100.00;101398.41;5082870;28;20376;-80
2022/11/29 06:41:41;;;;;;;393.10;57.42;;;;;;;6.69;100.00;101403.56;5069135;28;20396;-80
2022/11/29 06:44:08;;;;;;;385.15;57.22;;;;;;;6.71;100.00;101405.25;5078629;28;20037;-80
2022/11/29 06:47:07;;;;;;;414.23;59.13;;;;;;;6.73;100.00;101406.03;5050316;28;20361;-80
2022/11/29 06:49:47;;;;;;;282.15;52.70;;;;;;;6.76;100.00;101411.31;5070392;28;20089;-80
2022/11/29 06:52:36;;;;;;;354.10;55.75;;;;;;;6.81;100.00;101420.09;5078521;28;20467;-80
2022/11/29 06:55:31;;;;;;;458.60;59.33;;;;;;;6.78;100.00;101419.41;5079968;28;20078;-80
2022/11/29 06:58:32;;;;;;;514.53;59.83;;;;;;;6.80;100.00;101423.81;5077096;28;20032;-80
2022/11/29 07:01:21;;;;;;;518.78;66.55;;;;;;;6.85;100.00;101430.84;5083135;28;20493;-80
2022/11/29 07:04:29;;;;;;;476.95;59.10;;;;;;;6.82;100.00;101437.31;5078723;28;20444;-79
2022/11/29 07:06:55;;;;;;;444.15;59.08;;;;;;;6.81;100.00;101441.88;5083603;28;20054;-80
2022/11/29 07:09:26;;;;;;;554.28;64.72;;;;;;;6.88;100.00;101449.72;5075824;28;20032;-80
2022/11/29 07:11:52;;;;;;;544.95;64.00;;;;;;;6.90;100.00;101440.50;5066605;28;20036;-80
2022/11/29 07:14:18;;;;;;;399.40;57.75;;;;;;;6.86;100.00;101438.91;5076453;28;20086;-80
2022/11/29 07:16:50;;;;;;;574.58;63.42;;;;;;;6.92;100.00;101446.75;5077068;28;20037;-80
2022/11/29 07:19:47;;;;;;;504.70;62.35;;;;;;;6.88;100.00;101444.28;5077523;28;20048;-80
2022/11/29 07:22:40;;;;;;;482.92;58.85;;;;;;;6.92;100.00;101454.03;5081527;28;20063;-80
2022/11/29 07:25:31;;;;;;;535.42;64.63;;;;;;;6.89;100.00;101451.50;5059536;28;20537;-80
2022/11/29 07:28:27;;;;;;;435.10;53.30;;;;;;;6.96;100.00;101451.06;5084416;28;20387;-80
2022/11/29 07:31:14;;;;;;;512.60;57.50;;;;;;;6.91;100.00;101455.88;5081351;28;20036;-80
2022/11/29 07:33:58;;;;;;;516.45;57.33;;;;;;;6.91;100.00;101461.31;5095332;28;20032;-80
2022/11/29 07:36:39;;;;;;;500.05;59.67;;;;;;;6.92;100.00;101462.19;5086968;28;20031;-80
2022/11/29 07:39:23;;;;;;;454.55;55.15;;;;;;;6.92;100.00;101470.34;5065104;28;20033;-80
2022/11/29 07:41:51;;;;;;;;;;;;;;;6.94;100.00;101473.91;5073603;28;20058;-79
2022/11/29 07:44:33;;;;;;;398.38;49.47;;;;;;;6.94;100.00;101471.19;5104200;28;19968;-79
2022/11/29 07:46:59;;;;;;;563.25;56.22;;;;;;;6.93;100.00;101472.13;5072016;28;20030;-80
2022/11/29 07:49:24;;;;;;;572.53;55.88;;;;;;;6.97;100.00;101471.88;5080589;28;20115;-81
2022/11/29 07:51:49;;;;;;;370.17;46.72;;;;;;;7.01;100.00;101469.88;5056681;28;20101;-79
2022/11/29 07:54:17;;;;;;;395.50;47.95;;;;;;;7.03;100.00;101478.81;5077018;28;20024;-81
2022/11/29 07:56:43;;;;;;;367.33;45.17;;;;;;;6.98;100.00;101484.56;5089892;28;20040;-80
2022/11/29 07:59:11;;;;;;;361.13;43.63;;;;;;;6.97;100.00;101466.44;5067676;28;20047;-80
2022/11/29 08:01:38;;;;;;;320.55;41.92;;;;;;;7.08;100.00;101479.44;5077537;28;20040;-80
2022/11/29 08:04:04;;;;;;;352.88;42.38;;;;;;;7.04;100.00;101471.56;5098113;28;20036;-81
2022/11/29 08:06:29;;;;;;;340.15;41.72;;;;;;;6.99;100.00;101466.34;5062524;28;20036;-82
2022/11/29 08:08:59;;;;;;;287.33;39.17;;;;;;;6.95;100.00;101470.19;5052621;28;20035;-80
2022/11/29 08:11:25;;;;;;;338.67;40.22;;;;;;;7.03;100.00;101476.09;5089781;28;20024;-82
2022/11/29 08:14:04;;;;;;;263.27;36.50;;;;;;;7.13;100.00;101466.50;5057797;28;20483;-80
2022/11/29 08:16:29;;;;;;;298.88;35.55;;;;;;;7.12;100.00;101486.50;5079643;28;20036;-80
2022/11/29 08:18:55;;;;;;;322.42;36.38;;;;;;;7.17;100.00;101488.97;5058113;28;20036;-80
2022/11/29 08:21:20;;;;;;;244.90;36.83;;;;;;;7.26;100.00;101488.47;5066671;28;20056;-79
2022/11/29 08:23:47;;;;;;;334.85;36.25;;;;;;;7.25;100.00;101494.03;5076954;28;20066;-79
2022/11/29 08:26:15;;;;;;;243.35;34.60;;;;;;;7.27;100.00;101492.97;5089964;28;20032;-79
2022/11/29 08:28:40;;;;;;;330.45;37.80;;;;;;;7.30;100.00;101490.06;5073087;28;20043;-79
2022/11/29 08:31:10;;;;;;;265.95;36.85;;;;;;;7.25;100.00;101478.56;5085081;28;20031;-80
2022/11/29 08:33:37;;;;;;;342.27;42.38;;;;;;;7.30;100.00;101494.66;5100369;28;20032;-80
2022/11/29 08:36:06;;;;;;;318.50;40.70;;;;;;;7.31;100.00;101499.09;5079279;28;20425;-80
2022/11/29 08:38:32;;;;;;;298.05;38.63;;;;;;;7.20;100.00;101491.53;5080912;28;20036;-80
2022/11/29 08:41:01;;;;;;;267.40;36.90;;;;;;;7.25;100.00;101504.91;5101707;28;20494;-81
2022/11/29 08:43:28;;;;;;;237.73;35.95;;;;;;;7.29;100.00;101498.31;5073814;28;20047;-80
2022/11/29 08:45:54;;;;;;;210.63;36.70;;;;;;;7.33;100.00;101503.53;5057764;28;20104;-80
2022/11/29 08:48:20;;;;;;;250.00;38.47;;;;;;;7.31;100.00;101505.47;5093740;28;20056;-80
2022/11/29 08:50:48;;;;;;;277.52;38.75;;;;;;;7.36;100.00;101514.25;5093569;28;20040;-80
2022/11/29 08:55:58;;;;;;;255.25;38.15;;;;;;;7.39;100.00;101515.91;5089259;28;20040;-80
2022/11/29 08:58:24;;;;;;;208.65;34.45;;;;;;;7.44;100.00;101516.53;5101975;28;20038;-80
2022/11/29 09:00:50;;;;;;;274.58;38.70;;;;;;;7.40;100.00;101519.53;5100821;28;20047;-80
2022/11/29 09:06:11;;;;;;;292.10;36.88;;;;;;;7.33;100.00;101527.16;5090878;28;20040;-79
2022/11/29 09:08:37;;;;;;;289.45;35.67;;;;;;;7.30;100.00;101532.78;5063617;28;20025;-80
2022/11/29 09:11:07;;;;;;;283.83;36.08;;;;;;;7.22;100.00;101526.88;5069342;28;20059;-79
2022/11/29 09:13:33;;;;;;;299.65;38.67;;;;;;;7.27;100.00;101531.09;5090822;28;20048;-82
2022/11/29 09:16:05;;;;;;;335.45;41.30;;;;;;;7.23;100.00;101517.72;5092786;28;20052;-80
2022/11/29 09:18:31;;;;;;;304.15;38.95;;;;;;;7.31;100.00;101532.69;5077059;28;20028;-79
2022/11/29 09:20:56;;;;;;;284.00;38.63;;;;;;;7.28;100.00;101540.13;5076532;28;20072;-80
2022/11/29 09:23:22;;;;;;;304.08;39.35;;;;;;;7.28;100.00;101529.22;5076998;28;20043;-80
2022/11/29 09:25:48;;;;;;;265.67;37.05;;;;;;;7.29;100.00;101539.19;5101773;28;20024;-79
2022/11/29 09:28:14;;;;;;;295.80;38.40;;;;;;;7.32;100.00;101548.06;5117406;28;20047;-79
2022/11/29 09:30:40;;;;;;;322.92;41.15;;;;;;;7.23;100.00;101531.34;5109410;28;20047;-79
2022/11/29 09:33:07;;;;;;;315.15;42.00;;;;;;;7.32;100.00;101560.81;5073358;28;20036;-79
2022/11/29 09:35:33;;;;;;;260.40;36.45;;;;;;;7.31;100.00;101567.19;5064242;28;20058;-80
2022/11/29 09:37:59;;;;;;;275.92;38.67;;;;;;;7.30;100.00;101569.06;5115065;28;20036;-80
2022/11/29 09:40:31;;;;;;;304.75;39.05;;;;;;;7.35;100.00;101575.13;5111256;28;20095;-79
2022/11/29 09:43:13;;;;;;;269.05;39.63;;;;;;;7.33;100.00;101577.06;5110294;28;20024;-79
2022/11/29 09:45:41;;;;;;;333.98;40.17;;;;;;;7.39;100.00;101574.97;5083488;28;20074;-79
2022/11/29 09:48:26;;;;;;;256.33;37.83;;;;;;;7.43;100.00;101579.28;5085156;28;20054;-79
2022/11/29 09:51:16;;;;;;;255.60;35.78;;;;;;;7.46;100.00;101577.28;5098032;28;20016;-79
2022/11/29 09:54:07;;;;;;;285.13;35.75;;;;;;;7.41;100.00;101576.66;5104614;28;20040;-80
2022/11/29 09:56:46;;;;;;;261.23;36.78;;;;;;;7.40;100.00;101583.06;5094149;28;20092;-80
2022/11/29 09:59:55;;;;;;;246.45;33.78;;;;;;;7.28;100.00;101583.72;5106903;28;20019;-79
2022/11/29 10:02:46;;;;;;;215.98;32.28;;;;;;;7.21;100.00;101576.84;5077848;28;20044;-80
2022/11/29 10:05:27;;;;;;;244.88;32.92;;;;;;;7.35;100.00;101579.72;5118512;28;20034;-79
2022/11/29 10:08:05;;;;;;;268.75;33.97;;;;;;;7.37;100.00;101580.50;5102356;28;20049;-80
2022/11/29 10:10:44;;;;;;;206.80;30.25;;;;;;;7.31;100.00;101580.81;5112681;28;20028;-80
2022/11/29 10:13:22;;;;;;;213.00;30.00;;;;;;;7.24;100.00;101583.00;5092283;28;20388;-80
2022/11/29 10:15:52;;;;;;;214.13;30.50;;;;;;;7.35;100.00;101583.31;5092596;28;20094;-80
2022/11/29 10:18:32;;;;;;;227.85;31.77;;;;;;;7.35;100.00;101594.19;5108267;28;20039;-80
2022/11/29 10:21:05;;;;;;;185.82;32.50;;;;;;;7.34;100.00;101595.16;5105279;28;20454;-80
2022/11/29 10:23:58;;;;;;;206.18;32.78;;;;;;;7.35;100.00;101590.59;5106969;28;20092;-80
2022/11/29 10:26:23;;;;;;;236.50;32.33;;;;;;;7.36;100.00;101586.91;5094936;28;20032;-80
2022/11/29 10:28:50;;;;;;;208.70;31.95;;;;;;;7.36;100.00;101581.44;5092306;28;20111;-80
2022/11/29 10:31:30;;;;;;;180.65;30.70;;;;;;;7.31;100.00;101578.09;5088357;28;20032;-80
2022/11/29 10:33:59;;;;;;;202.32;30.90;;;;;;;7.31;100.00;101576.28;5087316;28;20046;-81
2022/11/29 10:36:47;;;;;;;210.02;33.67;;;;;;;7.47;100.00;101587.19;5080974;28;20025;-80
2022/11/29 10:39:18;;;;;;;158.07;28.95;;;;;;;7.53;100.00;101580.56;5083151;28;20090;-81
2022/11/29 10:41:45;;;;;;;184.85;29.02;;;;;;;7.55;100.00;101587.66;5092486;28;20128;-81
2022/11/29 10:44:13;;;;;;;170.65;26.35;;;;;;;7.32;100.00;101558.94;5082975;28;20495;-80
2022/11/29 10:46:39;;;;;;;119.60;21.77;;;;;;;7.67;100.00;101572.50;5067019;28;20040;-80
2022/11/29 10:49:09;;;;;;;171.90;26.63;;;;;;;7.48;100.00;101580.81;5069574;28;20031;-80
2022/11/29 10:51:35;;;;;;;155.25;26.85;;;;;;;7.44;100.00;101573.75;5088132;28;20077;-80
2022/11/29 10:54:20;;;;;;;140.23;27.05;;;;;;;7.35;100.00;101574.25;5103366;28;20047;-81
2022/11/29 10:56:46;;;;;;;143.35;24.60;;;;;;;7.29;100.00;101572.72;5093374;28;20028;-80
2022/11/29 10:59:24;;;;;;;157.18;25.27;;;;;;;7.39;100.00;101581.28;5110576;28;20032;-80
2022/11/29 11:01:50;;;;;;;129.07;23.85;;;;;;;7.40;100.00;101580.34;5125497;28;20108;-80
2022/11/29 11:04:23;;;;;;;146.75;24.95;;;;;;;7.33;100.00;101568.03;5092407;28;20175;-81
2022/11/29 11:06:51;;;;;;;133.13;25.85;;;;;;;7.40;100.00;101582.19;5093269;28;20063;-80
2022/11/29 11:09:36;;;;;;;140.68;25.63;;;;;;;7.37;100.00;101575.06;5113678;28;20024;-80
2022/11/29 11:12:07;;;;;;;165.93;27.90;;;;;;;7.36;100.00;101581.44;5080221;28;20020;-81
2022/11/29 11:14:37;;;;;;;152.85;26.02;;;;;;;7.30;100.00;101577.22;5111006;28;20058;-81
2022/11/29 11:17:29;;;;;;;140.52;26.50;;;;;;;7.22;100.00;101573.16;5109130;28;20042;-80
2022/11/29 11:19:59;;;;;;;142.63;25.35;;;;;;;7.29;100.00;101572.72;5109142;28;20052;-81
2022/11/29 11:22:27;;;;;;;147.10;26.70;;;;;;;7.34;100.00;101581.53;5086517;28;20047;-80
2022/11/29 11:25:03;;;;;;;181.40;27.83;;;;;;;7.21;100.00;101566.81;5080923;28;20035;-79
2022/11/29 11:27:34;;;;;;;206.98;30.10;;;;;;;7.28;100.00;101568.28;5086843;28;20036;-79
2022/11/29 11:30:04;;;;;;;187.32;26.80;;;;;;;7.34;100.00;101575.22;5072142;28;20020;-81
2022/11/29 11:32:29;;;;;;;163.10;28.10;;;;;;;7.28;100.00;101579.16;5106361;28;20450;-80
2022/11/29 11:34:59;;;;;;;142.48;25.73;;;;;;;7.31;100.00;101579.00;5094092;28;20036;-80
2022/11/29 11:37:30;;;;;;;152.98;24.10;;;;;;;7.33;100.00;101578.91;5087452;28;20029;-82
2022/11/29 11:40:19;;;;;;;139.52;25.35;;;;;;;7.26;100.00;101569.31;5079132;28;20012;-81
2022/11/29 11:42:45;;;;;;;126.45;23.75;;;;;;;7.25;100.00;101583.91;5082659;28;20037;-79
2022/11/29 11:45:10;;;;;;;151.00;26.25;;;;;;;7.40;100.00;101599.41;5311357;22;20050;-76